Time;durP1;ratioP1;P1;durP2;ratioP2;P2;SDS_P1;SDS_P2;PMS_P1;PMS_P2;Temp;Humidity;BMP_temperature;BMP_pressure;BME280_temperature;BME280_humidity;BME280_pressure;Samples;Min_cycle;Max_cycle;Signal;HPM_P1;HPM_P2
2021/09/04 00:01:15;;;;;;;3.90;2.55;;;28.30;99.90;;;;;;4201212;28;20063;-69
2021/09/04 00:03:20;;;;;;;6.47;2.58;;;28.30;99.90;;;;;;4206760;28;20066;-68
2021/09/04 00:05:26;;;;;;;10.52;3.33;;;28.30;99.90;;;;;;4225457;27;20055;-68
2021/09/04 00:07:31;;;;;;;9.38;4.13;;;28.30;99.90;;;;;;4227870;27;20134;-69
2021/09/04 00:09:37;;;;;;;4.68;3.33;;;28.30;99.90;;;;;;4225216;28;20449;-69
2021/09/04 00:11:41;;;;;;;6.90;3.00;;;28.30;99.90;;;;;;4215196;27;20061;-68
2021/09/04 00:13:48;;;;;;;5.63;2.85;;;28.30;99.90;;;;;;4226575;27;20071;-69
2021/09/04 00:15:53;;;;;;;6.57;3.15;;;28.30;99.90;;;;;;4232562;27;20047;-68
2021/09/04 00:17:58;;;;;;;6.72;4.35;;;28.40;99.90;;;;;;4233079;27;20138;-69
2021/09/04 00:20:04;;;;;;;6.85;3.80;;;28.40;99.90;;;;;;4235316;27;20504;-69
2021/09/04 00:22:08;;;;;;;10.68;4.13;;;28.40;99.90;;;;;;4230809;27;20116;-69
2021/09/04 00:24:12;;;;;;;9.68;4.95;;;28.50;99.90;;;;;;4235686;27;20091;-69
2021/09/04 00:26:17;;;;;;;10.60;4.97;;;28.60;99.90;;;;;;4233257;27;20039;-69
2021/09/04 00:28:23;;;;;;;12.02;4.97;;;28.60;99.90;;;;;;4235508;27;20051;-69
2021/09/04 00:30:28;;;;;;;7.32;4.65;;;28.70;99.90;;;;;;4236008;27;20125;-69
2021/09/04 00:32:32;;;;;;;7.45;5.38;;;28.70;99.90;;;;;;4234064;27;20051;-69
2021/09/04 00:34:37;;;;;;;4.88;3.72;;;28.70;99.90;;;;;;4238394;27;20047;-69
2021/09/04 00:36:41;;;;;;;5.88;2.72;;;28.70;99.90;;;;;;4237071;27;20375;-68
2021/09/04 00:38:45;;;;;;;4.47;2.88;;;28.80;99.90;;;;;;4238430;27;20039;-68
2021/09/04 00:40:50;;;;;;;7.43;2.67;;;28.80;99.90;;;;;;4234380;27;20039;-68
2021/09/04 00:42:54;;;;;;;4.85;2.63;;;28.80;99.90;;;;;;4237067;27;20047;-68
2021/09/04 00:44:58;;;;;;;3.58;2.40;;;28.80;99.90;;;;;;4236923;27;20039;-68
2021/09/04 00:47:04;;;;;;;8.30;2.75;;;28.90;99.90;;;;;;4233298;28;20111;-68
2021/09/04 00:49:08;;;;;;;6.53;2.40;;;28.90;99.90;;;;;;4236964;28;20386;-69
2021/09/04 00:51:13;;;;;;;2.92;1.90;;;28.80;99.90;;;;;;4235755;28;20134;-69
2021/09/04 00:53:17;;;;;;;5.32;1.90;;;28.90;99.90;;;;;;4237186;28;20127;-69
2021/09/04 00:55:21;;;;;;;4.00;2.00;;;28.80;99.90;;;;;;4234503;28;20039;-69
2021/09/04 00:57:26;;;;;;;5.10;2.17;;;28.90;99.90;;;;;;4234241;28;20378;-67
2021/09/04 00:59:32;;;;;;;5.05;1.83;;;28.90;99.90;;;;;;4227658;28;20085;-69
2021/09/04 01:01:51;;;;;;;6.28;1.90;;;28.90;99.90;;;;;;4225576;28;20098;-69
2021/09/04 01:03:56;;;;;;;5.75;1.80;;;29.00;99.90;;;;;;4230734;28;20461;-69
2021/09/04 01:06:01;;;;;;;3.78;1.90;;;29.00;99.90;;;;;;4222612;28;20089;-69
2021/09/04 01:08:06;;;;;;;7.97;1.77;;;29.10;99.90;;;;;;4217192;28;20038;-69
2021/09/04 01:10:12;;;;;;;2.92;1.75;;;29.10;99.90;;;;;;4210630;28;20043;-69
2021/09/04 01:12:16;;;;;;;4.55;1.80;;;29.10;99.90;;;;;;4211205;28;20043;-69
2021/09/04 01:14:21;;;;;;;3.17;2.03;;;29.20;99.90;;;;;;4209886;28;20506;-69
2021/09/04 01:16:35;;;;;;;5.15;1.80;;;29.30;99.90;;;;;;4211858;28;20044;-69
2021/09/04 01:18:39;;;;;;;4.97;2.00;;;29.30;99.90;;;;;;4210561;28;20071;-69
2021/09/04 01:20:44;;;;;;;5.07;1.95;;;29.40;99.90;;;;;;4215620;28;20063;-69
2021/09/04 01:22:49;;;;;;;5.75;1.85;;;29.30;99.90;;;;;;4221931;28;20093;-69
2021/09/04 01:24:53;;;;;;;6.03;1.65;;;29.40;99.90;;;;;;4217457;28;20060;-68
2021/09/04 01:26:58;;;;;;;7.10;1.75;;;29.40;99.90;;;;;;4218716;28;20560;-67
2021/09/04 01:29:03;;;;;;;5.00;1.60;;;29.50;99.90;;;;;;4221275;28;20055;-67
2021/09/04 01:31:08;;;;;;;4.45;1.65;;;29.60;99.90;;;;;;4220629;28;20139;-68
2021/09/04 01:33:13;;;;;;;3.55;1.50;;;29.60;99.90;;;;;;4214391;28;20048;-67
2021/09/04 01:35:22;;;;;;;4.93;1.60;;;29.60;99.90;;;;;;4213313;28;20082;-67
2021/09/04 01:37:26;;;;;;;3.05;1.63;;;29.60;99.90;;;;;;4217207;28;20040;-68
2021/09/04 01:39:31;;;;;;;5.95;1.40;;;29.60;99.90;;;;;;4216873;28;20065;-67
2021/09/04 01:41:37;;;;;;;6.55;1.67;;;29.60;99.90;;;;;;4219406;28;20048;-67
2021/09/04 01:43:42;;;;;;;3.10;1.45;;;29.70;99.90;;;;;;4215368;28;20062;-68
2021/09/04 01:45:46;;;;;;;5.75;1.70;;;29.80;99.90;;;;;;4215913;28;20581;-67
2021/09/04 01:47:51;;;;;;;3.55;1.60;;;29.80;99.90;;;;;;4216575;28;20090;-68
2021/09/04 01:49:55;;;;;;;4.40;1.70;;;29.90;99.90;;;;;;4217132;28;20074;-68
2021/09/04 01:52:00;;;;;;;7.20;1.70;;;29.90;99.90;;;;;;4215567;28;20081;-67
2021/09/04 01:54:04;;;;;;;2.70;1.48;;;30.00;99.90;;;;;;4215657;28;20042;-67
2021/09/04 01:56:12;;;;;;;4.15;1.63;;;30.00;99.90;;;;;;4213862;28;20055;-67
2021/09/04 01:58:17;;;;;;;3.50;1.80;;;30.10;99.90;;;;;;4216598;28;20047;-67
2021/09/04 02:00:21;;;;;;;2.70;1.63;;;30.10;99.90;;;;;;4214518;28;20048;-67
2021/09/04 02:02:26;;;;;;;2.08;1.65;;;30.00;99.90;;;;;;4213112;28;20068;-67
2021/09/04 02:04:30;;;;;;;4.97;1.52;;;30.00;99.90;;;;;;4221579;27;20101;-67
2021/09/04 02:06:34;;;;;;;5.32;1.75;;;30.00;99.90;;;;;;4231029;27;20069;-67
2021/09/04 02:08:39;;;;;;;2.20;1.38;;;30.00;99.90;;;;;;4231161;27;20183;-67
2021/09/04 02:10:44;;;;;;;4.00;1.58;;;30.20;99.90;;;;;;4233624;27;20405;-67
2021/09/04 02:12:48;;;;;;;3.20;1.40;;;30.30;99.90;;;;;;4231889;27;20050;-67
2021/09/04 02:14:53;;;;;;;5.60;1.50;;;30.30;99.90;;;;;;4229666;27;20050;-67
2021/09/04 02:16:59;;;;;;;4.00;1.90;;;30.40;99.90;;;;;;4231209;27;20084;-68
2021/09/04 02:19:03;;;;;;;2.88;1.17;;;30.50;99.90;;;;;;4229205;27;20402;-67
2021/09/04 02:21:08;;;;;;;5.68;1.40;;;30.50;99.90;;;;;;4230998;27;20562;-67
2021/09/04 02:23:14;;;;;;;4.22;1.50;;;30.60;99.90;;;;;;4234474;27;20097;-67
2021/09/04 02:25:18;;;;;;;4.47;1.48;;;30.70;99.90;;;;;;4211016;28;20411;-67
2021/09/04 02:27:25;;;;;;;5.75;1.20;;;30.80;99.90;;;;;;4225203;27;20488;-67
2021/09/04 02:29:29;;;;;;;3.83;1.60;;;30.80;99.90;;;;;;4232033;27;20112;-68
2021/09/04 02:31:33;;;;;;;5.18;1.38;;;30.70;99.90;;;;;;4232025;27;20081;-67
2021/09/04 02:33:38;;;;;;;3.10;1.35;;;30.60;99.90;;;;;;4239829;27;20051;-68
2021/09/04 02:35:42;;;;;;;4.25;1.30;;;30.60;99.90;;;;;;4237887;27;20059;-67
2021/09/04 02:37:47;;;;;;;1.92;1.20;;;30.60;99.90;;;;;;4231431;27;20044;-68
2021/09/04 02:39:52;;;;;;;7.93;1.67;;;30.50;99.90;;;;;;4230542;28;20040;-68
2021/09/04 02:41:57;;;;;;;7.13;1.33;;;30.60;99.90;;;;;;4241576;27;20050;-67
2021/09/04 02:44:02;;;;;;;3.22;1.42;;;30.50;99.90;;;;;;4234663;27;20504;-67
2021/09/04 02:46:07;;;;;;;5.22;1.23;;;30.50;99.90;;;;;;4243821;27;20521;-67
2021/09/04 02:48:13;;;;;;;6.07;1.48;;;30.50;99.90;;;;;;4231447;27;20108;-67
2021/09/04 02:50:19;;;;;;;4.32;1.30;;;30.60;99.90;;;;;;4224109;27;20050;-67
2021/09/04 02:52:24;;;;;;;3.85;1.20;;;30.60;99.90;;;;;;4229668;28;20314;-67
2021/09/04 02:54:29;;;;;;;5.57;1.13;;;30.60;99.90;;;;;;4222622;27;20051;-67
2021/09/04 02:56:34;;;;;;;3.05;1.30;;;30.60;99.90;;;;;;4245553;27;20057;-67
2021/09/04 02:58:40;;;;;;;2.22;1.10;;;30.70;99.90;;;;;;4231168;27;20051;-67
2021/09/04 03:00:44;;;;;;;4.47;1.10;;;30.70;99.90;;;;;;4238201;27;20134;-67
2021/09/04 03:02:50;;;;;;;2.22;1.00;;;30.70;99.90;;;;;;4232565;27;20077;-68
2021/09/04 03:04:55;;;;;;;1.00;0.70;;;30.80;99.90;;;;;;4227389;27;20268;-67
2021/09/04 03:06:59;;;;;;;1.75;1.10;;;30.80;99.90;;;;;;4202661;28;20047;-67
2021/09/04 03:09:05;;;;;;;4.20;0.98;;;30.80;99.90;;;;;;4203079;28;20731;-66
2021/09/04 03:11:09;;;;;;;5.55;1.25;;;30.80;99.90;;;;;;4211405;28;20394;-67
2021/09/04 03:13:14;;;;;;;2.20;1.02;;;30.80;99.90;;;;;;4218652;28;20040;-67
2021/09/04 03:15:19;;;;;;;3.33;1.13;;;31.00;99.90;;;;;;4212093;28;20040;-67
2021/09/04 03:17:24;;;;;;;11.40;2.72;;;31.00;99.90;;;;;;4225996;28;20528;-66
2021/09/04 03:19:29;;;;;;;30.00;7.63;;;31.10;99.90;;;;;;4219730;28;20448;-66
2021/09/04 03:21:33;;;;;;;61.97;14.13;;;31.20;99.90;;;;;;4223453;28;20451;-67
2021/09/04 03:23:38;;;;;;;23.90;5.35;;;31.30;99.90;;;;;;4216661;28;20122;-67
2021/09/04 03:25:43;;;;;;;27.45;7.85;;;31.30;99.90;;;;;;4218675;28;20044;-67
2021/09/04 03:27:47;;;;;;;22.67;5.05;;;31.30;99.90;;;;;;4215629;28;20664;-67
2021/09/04 03:29:52;;;;;;;7.55;1.70;;;31.50;99.90;;;;;;4210690;28;20075;-67
2021/09/04 03:31:57;;;;;;;5.65;1.30;;;31.60;99.90;;;;;;4212026;28;20550;-67
2021/09/04 03:34:03;;;;;;;2.75;1.20;;;31.60;99.90;;;;;;4216662;28;20043;-67
2021/09/04 03:36:07;;;;;;;4.43;1.20;;;31.60;99.90;;;;;;4222202;28;20448;-67
2021/09/04 03:38:12;;;;;;;3.20;1.10;;;31.60;99.90;;;;;;4223478;28;20328;-67
2021/09/04 03:40:17;;;;;;;2.22;1.05;;;31.70;99.90;;;;;;4224493;28;20071;-66
2021/09/04 03:42:21;;;;;;;1.83;0.90;;;31.70;99.90;;;;;;4220572;28;20040;-67
2021/09/04 03:44:27;;;;;;;3.22;1.08;;;31.80;99.90;;;;;;4212187;28;20689;-67
2021/09/04 03:46:31;;;;;;;1.95;1.17;;;31.80;99.90;;;;;;4225026;28;20056;-67
2021/09/04 03:48:36;;;;;;;2.53;0.93;;;31.70;99.90;;;;;;4226829;28;20051;-67
2021/09/04 03:50:41;;;;;;;3.28;1.10;;;31.70;99.90;;;;;;4225298;28;20043;-67
2021/09/04 03:52:46;;;;;;;1.73;0.80;;;31.90;99.90;;;;;;4218878;28;20048;-67
2021/09/04 03:54:51;;;;;;;3.03;0.90;;;32.00;99.90;;;;;;4212832;28;20047;-67
2021/09/04 03:56:58;;;;;;;2.15;0.90;;;32.10;99.90;;;;;;4210514;28;20108;-67
2021/09/04 03:59:03;;;;;;;1.90;0.90;;;32.10;99.90;;;;;;4211254;28;20083;-67
2021/09/04 04:01:08;;;;;;;4.10;0.80;;;32.10;99.90;;;;;;4222606;28;20091;-67
2021/09/04 04:03:13;;;;;;;2.78;0.80;;;32.20;99.90;;;;;;4215365;28;20042;-67
2021/09/04 04:05:18;;;;;;;2.97;1.00;;;32.20;99.90;;;;;;4225871;27;20051;-67
2021/09/04 04:07:22;;;;;;;3.40;0.90;;;32.20;99.90;;;;;;4224948;28;20056;-67
2021/09/04 04:09:27;;;;;;;3.08;0.75;;;32.30;99.90;;;;;;4226982;27;20101;-67
2021/09/04 04:11:31;;;;;;;3.55;1.20;;;32.20;99.90;;;;;;4226968;28;20364;-67
2021/09/04 04:13:37;;;;;;;2.10;0.90;;;32.20;99.90;;;;;;4227928;27;20051;-67
2021/09/04 04:15:42;;;;;;;1.33;0.73;;;32.10;99.90;;;;;;4226488;28;20043;-67
2021/09/04 04:17:47;;;;;;;2.95;1.00;;;32.10;99.90;;;;;;4226995;27;20317;-67
2021/09/04 04:19:52;;;;;;;2.67;1.00;;;32.10;99.90;;;;;;4228290;27;20103;-67
2021/09/04 04:21:57;;;;;;;3.30;1.00;;;31.90;99.90;;;;;;4225728;27;20070;-67
2021/09/04 04:24:02;;;;;;;2.67;1.10;;;31.80;99.90;;;;;;4227501;27;20047;-67
2021/09/04 04:26:06;;;;;;;5.53;1.15;;;31.80;99.90;;;;;;4225835;28;20031;-67
2021/09/04 04:28:11;;;;;;;4.53;1.55;;;31.80;99.90;;;;;;4229435;27;20046;-67
2021/09/04 04:30:16;;;;;;;3.60;1.48;;;31.80;99.90;;;;;;4226977;27;20325;-67
2021/09/04 04:32:20;;;;;;;3.90;1.60;;;31.90;99.90;;;;;;4226106;28;20078;-67
2021/09/04 04:34:26;;;;;;;3.75;1.10;;;31.80;99.90;;;;;;4228012;27;20043;-67
2021/09/04 04:36:33;;;;;;;2.80;1.23;;;31.80;99.90;;;;;;4226251;28;20100;-67
2021/09/04 04:38:37;;;;;;;9.70;1.58;;;31.70;99.90;;;;;;4224973;28;20040;-67
2021/09/04 04:40:43;;;;;;;1.92;1.20;;;31.70;99.90;;;;;;4227423;28;20043;-67
2021/09/04 04:42:47;;;;;;;1.42;0.88;;;31.70;99.90;;;;;;4226922;28;20583;-67
2021/09/04 04:44:52;;;;;;;3.17;1.00;;;31.90;99.90;;;;;;4228660;28;20040;-67
2021/09/04 04:46:58;;;;;;;4.40;1.08;;;31.90;99.90;;;;;;4226437;28;20047;-67
2021/09/04 04:49:02;;;;;;;1.83;0.70;;;32.10;99.90;;;;;;4227524;27;20043;-67
2021/09/04 04:51:06;;;;;;;2.85;0.68;;;32.20;99.90;;;;;;4228414;28;20055;-67
2021/09/04 04:53:12;;;;;;;3.58;0.82;;;32.40;99.90;;;;;;4229144;28;20118;-67
2021/09/04 04:55:18;;;;;;;1.60;0.68;;;32.50;99.70;;;;;;4227157;28;20069;-67
2021/09/04 04:57:23;;;;;;;1.15;0.80;;;32.70;99.50;;;;;;4230736;27;20351;-67
2021/09/04 04:59:28;;;;;;;3.75;0.80;;;32.70;99.60;;;;;;4233922;27;20043;-66
2021/09/04 05:01:33;;;;;;;1.23;0.80;;;32.90;99.60;;;;;;4232673;27;20039;-67
2021/09/04 05:03:42;;;;;;;1.95;0.65;;;33.00;99.20;;;;;;4227662;27;20070;-67
2021/09/04 05:05:48;;;;;;;2.05;1.00;;;32.90;99.20;;;;;;4230985;27;20362;-67
2021/09/04 05:07:52;;;;;;;1.98;0.90;;;32.80;99.20;;;;;;4230900;27;21436;-67
2021/09/04 05:09:58;;;;;;;3.13;0.93;;;32.90;98.40;;;;;;4226793;28;20074;-67
2021/09/04 05:12:04;;;;;;;0.85;0.47;;;32.80;98.50;;;;;;4232866;27;20608;-67
2021/09/04 05:14:09;;;;;;;0.82;0.50;;;32.90;97.80;;;;;;4230709;27;20039;-67
2021/09/04 05:16:15;;;;;;;3.20;0.85;;;32.90;97.60;;;;;;4230146;27;20492;-67
2021/09/04 05:18:21;;;;;;;1.67;0.60;;;33.00;97.40;;;;;;4229507;28;20043;-67
2021/09/04 05:20:25;;;;;;;5.35;0.80;;;33.20;97.20;;;;;;4229588;27;20039;-68
2021/09/04 05:22:30;;;;;;;3.35;0.70;;;33.20;96.90;;;;;;4230010;27;20158;-67
2021/09/04 05:24:35;;;;;;;2.90;0.88;;;33.30;97.10;;;;;;4229556;27;20047;-67
2021/09/04 05:26:40;;;;;;;1.15;0.80;;;33.30;97.50;;;;;;4230580;27;20058;-67
2021/09/04 05:28:46;;;;;;;1.20;0.80;;;33.40;97.60;;;;;;4230283;27;20043;-67
2021/09/04 05:30:50;;;;;;;2.20;0.93;;;33.40;96.90;;;;;;4233132;27;20042;-67
2021/09/04 05:32:54;;;;;;;3.95;1.00;;;33.50;96.50;;;;;;4231507;27;20409;-67
2021/09/04 05:34:59;;;;;;;1.65;0.80;;;33.50;96.80;;;;;;4229347;27;20049;-67
2021/09/04 05:37:05;;;;;;;1.80;0.80;;;33.60;96.30;;;;;;4229406;27;20044;-67
2021/09/04 05:39:09;;;;;;;3.15;0.90;;;33.50;96.10;;;;;;4228779;27;20502;-67
2021/09/04 05:41:14;;;;;;;2.10;0.90;;;33.60;95.90;;;;;;4228459;27;20751;-67
2021/09/04 05:43:18;;;;;;;1.35;0.80;;;33.30;95.30;;;;;;4228467;27;20040;-68
2021/09/04 05:45:22;;;;;;;2.50;0.90;;;33.20;95.50;;;;;;4229496;27;20163;-67
2021/09/04 05:47:26;;;;;;;3.63;1.00;;;33.10;95.30;;;;;;4229463;27;20409;-67
2021/09/04 05:49:31;;;;;;;3.45;0.80;;;33.00;95.00;;;;;;4232632;27;20043;-68
2021/09/04 05:51:35;;;;;;;5.00;0.80;;;33.30;95.60;;;;;;4231946;27;20161;-67
2021/09/04 05:53:40;;;;;;;1.60;0.90;;;33.40;95.60;;;;;;4230588;27;20047;-68
2021/09/04 05:55:45;;;;;;;3.28;1.10;;;33.50;95.20;;;;;;4228843;27;20297;-67
2021/09/04 05:57:49;;;;;;;4.43;0.85;;;33.50;95.70;;;;;;4230969;27;20039;-68
2021/09/04 05:59:53;;;;;;;4.07;0.80;;;33.30;95.80;;;;;;4230490;27;20044;-67
2021/09/04 06:01:58;;;;;;;2.83;0.98;;;33.20;95.40;;;;;;4227916;27;20042;-68
2021/09/04 06:04:03;;;;;;;1.77;0.90;;;33.20;95.30;;;;;;4224206;27;20147;-67
2021/09/04 06:06:08;;;;;;;2.10;0.88;;;33.30;95.20;;;;;;4213993;28;20055;-67
2021/09/04 06:08:13;;;;;;;1.50;0.60;;;33.40;95.20;;;;;;4212852;28;20516;-68
2021/09/04 06:10:17;;;;;;;5.07;0.98;;;33.50;95.30;;;;;;4211145;28;20051;-67
2021/09/04 06:12:22;;;;;;;1.70;0.98;;;33.50;95.20;;;;;;4211493;28;20140;-67
2021/09/04 06:14:27;;;;;;;4.75;1.15;;;33.60;95.30;;;;;;4214044;28;20054;-68
2021/09/04 06:16:31;;;;;;;6.40;1.40;;;33.60;95.20;;;;;;4211700;28;20071;-68
2021/09/04 06:18:36;;;;;;;2.47;0.98;;;33.70;95.40;;;;;;4212819;28;20094;-67
2021/09/04 06:20:40;;;;;;;3.00;1.20;;;33.80;95.30;;;;;;4212249;28;20042;-67
2021/09/04 06:22:45;;;;;;;2.28;0.95;;;33.90;94.70;;;;;;4209903;28;20044;-67
2021/09/04 06:24:50;;;;;;;3.38;1.20;;;33.90;94.80;;;;;;4210873;28;20044;-68
2021/09/04 06:26:54;;;;;;;3.35;0.77;;;33.80;95.10;;;;;;4215312;28;20032;-67
2021/09/04 06:28:58;;;;;;;6.32;1.58;;;33.70;94.90;;;;;;4219792;28;20052;-67
2021/09/04 06:31:03;;;;;;;5.57;1.05;;;33.80;94.70;;;;;;4212463;28;20458;-67
2021/09/04 06:33:07;;;;;;;4.38;1.55;;;33.80;95.00;;;;;;4222588;28;20039;-67
2021/09/04 06:35:12;;;;;;;5.88;4.38;;;33.80;95.40;;;;;;4215541;28;20098;-67
2021/09/04 06:37:16;;;;;;;4.05;2.78;;;33.80;95.20;;;;;;4219412;28;20054;-67
2021/09/04 06:39:21;;;;;;;7.05;1.75;;;33.90;94.60;;;;;;4217842;28;20052;-67
2021/09/04 06:41:25;;;;;;;1.60;1.10;;;34.00;94.10;;;;;;4219016;28;20486;-67
2021/09/04 06:43:30;;;;;;;2.83;0.90;;;34.00;94.40;;;;;;4219893;28;20075;-67
2021/09/04 06:45:34;;;;;;;1.42;0.82;;;33.90;94.20;;;;;;4219632;28;20044;-67
2021/09/04 06:47:39;;;;;;;1.35;0.63;;;33.90;93.50;;;;;;4219018;28;20040;-67
2021/09/04 06:49:43;;;;;;;1.13;0.70;;;33.90;93.80;;;;;;4216705;28;20048;-67
2021/09/04 06:51:47;;;;;;;2.13;0.70;;;34.10;93.50;;;;;;4219010;28;20036;-67
2021/09/04 06:53:52;;;;;;;3.42;0.90;;;34.00;93.50;;;;;;4219003;28;20101;-68
2021/09/04 06:55:56;;;;;;;2.03;1.00;;;34.10;93.60;;;;;;4216931;28;20039;-67
2021/09/04 06:58:01;;;;;;;4.68;0.90;;;34.20;93.50;;;;;;4218764;28;20131;-68
2021/09/04 07:00:05;;;;;;;2.25;0.93;;;34.30;93.20;;;;;;4214095;28;20456;-67
2021/09/04 07:02:11;;;;;;;1.80;0.90;;;34.40;93.40;;;;;;4217749;28;20063;-67
2021/09/04 07:04:16;;;;;;;1.50;0.90;;;34.50;93.60;;;;;;4213492;28;20052;-67
2021/09/04 07:06:20;;;;;;;1.50;0.80;;;34.50;93.30;;;;;;4216964;28;20320;-67
2021/09/04 07:08:25;;;;;;;1.75;0.82;;;34.60;92.90;;;;;;4216414;28;20051;-67
2021/09/04 07:10:29;;;;;;;0.90;0.70;;;34.50;90.90;;;;;;4216378;28;20600;-67
2021/09/04 07:12:34;;;;;;;1.90;0.70;;;34.40;90.90;;;;;;4217025;28;20120;-67
2021/09/04 07:14:38;;;;;;;3.80;1.00;;;34.50;92.20;;;;;;4213210;28;20051;-67
2021/09/04 07:16:42;;;;;;;3.00;0.93;;;34.40;92.80;;;;;;4208844;28;20498;-67
2021/09/04 07:18:48;;;;;;;2.03;0.93;;;34.50;93.60;;;;;;4204801;28;20046;-67
2021/09/04 07:20:53;;;;;;;2.58;0.95;;;34.60;92.00;;;;;;4211493;28;20047;-67
2021/09/04 07:22:57;;;;;;;1.88;0.98;;;34.70;92.60;;;;;;4209464;28;20385;-67
2021/09/04 07:25:01;;;;;;;1.52;0.70;;;34.70;92.10;;;;;;4209271;28;20098;-67
2021/09/04 07:27:06;;;;;;;3.30;0.90;;;34.80;92.50;;;;;;4210496;28;20405;-67
2021/09/04 07:29:10;;;;;;;2.17;0.75;;;35.00;92.70;;;;;;4209971;28;20047;-67
2021/09/04 07:31:16;;;;;;;1.63;0.82;;;35.00;92.00;;;;;;4209270;28;20060;-67
2021/09/04 07:33:21;;;;;;;2.15;0.80;;;34.90;92.10;;;;;;4210163;28;20541;-67
2021/09/04 07:35:25;;;;;;;5.38;0.88;;;34.90;91.60;;;;;;4207783;28;20086;-67
2021/09/04 07:37:30;;;;;;;3.47;0.90;;;34.90;92.00;;;;;;4211588;28;20060;-67
2021/09/04 07:39:34;;;;;;;1.40;0.73;;;35.00;91.90;;;;;;4212036;28;20574;-67
2021/09/04 07:41:38;;;;;;;1.25;0.73;;;34.90;92.10;;;;;;4212431;28;20044;-67
2021/09/04 07:43:43;;;;;;;3.05;0.90;;;34.70;92.10;;;;;;4212583;28;20151;-67
2021/09/04 07:45:47;;;;;;;3.65;0.80;;;34.70;92.50;;;;;;4209385;28;20044;-67
2021/09/04 07:47:52;;;;;;;1.05;0.70;;;34.50;92.00;;;;;;4212386;28;20039;-67
2021/09/04 07:49:58;;;;;;;3.85;1.10;;;34.50;92.70;;;;;;4211090;28;20044;-66
2021/09/04 07:52:04;;;;;;;2.28;0.80;;;34.50;93.00;;;;;;4210119;28;20122;-66
2021/09/04 07:54:08;;;;;;;1.00;0.70;;;34.50;93.00;;;;;;4210235;28;20490;-66
2021/09/04 07:56:13;;;;;;;3.08;0.80;;;34.50;92.30;;;;;;4211039;28;20097;-66
2021/09/04 07:58:18;;;;;;;3.53;0.70;;;34.50;92.20;;;;;;4212692;28;20047;-66
2021/09/04 08:00:22;;;;;;;1.50;0.70;;;34.40;92.10;;;;;;4210936;28;20051;-66
2021/09/04 08:02:27;;;;;;;3.05;0.80;;;34.30;92.30;;;;;;4210742;28;20052;-67
2021/09/04 08:04:32;;;;;;;4.03;0.80;;;34.30;92.10;;;;;;4221774;28;20510;-67
2021/09/04 08:06:36;;;;;;;1.35;0.70;;;34.40;91.90;;;;;;4228948;27;20096;-67
2021/09/04 08:08:43;;;;;;;2.72;0.50;;;34.40;92.10;;;;;;4229667;27;20056;-67
2021/09/04 08:10:47;;;;;;;1.58;0.80;;;34.50;92.10;;;;;;4226935;27;20048;-67
2021/09/04 08:12:51;;;;;;;0.88;0.68;;;34.50;92.10;;;;;;4234025;27;20044;-67
2021/09/04 08:14:56;;;;;;;1.92;0.95;;;34.50;92.00;;;;;;4233295;27;20044;-67
2021/09/04 08:17:00;;;;;;;1.10;0.63;;;34.60;92.00;;;;;;4231101;27;20047;-67
2021/09/04 08:19:05;;;;;;;2.30;0.50;;;34.70;91.40;;;;;;4231397;27;20032;-67
2021/09/04 08:21:09;;;;;;;1.30;0.88;;;34.80;91.00;;;;;;4230897;27;20040;-67
2021/09/04 08:23:14;;;;;;;1.10;0.80;;;34.70;91.20;;;;;;4234637;27;20028;-67
2021/09/04 08:25:19;;;;;;;3.65;0.80;;;34.80;91.50;;;;;;4235475;27;20042;-67
2021/09/04 08:27:23;;;;;;;2.42;0.90;;;34.70;91.40;;;;;;4236004;27;20046;-67
2021/09/04 08:29:28;;;;;;;3.40;0.88;;;34.70;91.30;;;;;;4234977;27;20066;-67
2021/09/04 08:31:33;;;;;;;1.10;0.82;;;34.70;91.40;;;;;;4231695;27;20509;-67
2021/09/04 08:33:37;;;;;;;1.90;1.10;;;34.60;91.60;;;;;;4233207;27;20050;-66
2021/09/04 08:35:42;;;;;;;2.83;1.10;;;34.60;92.10;;;;;;4235824;27;20481;-66
2021/09/04 08:37:46;;;;;;;1.98;0.98;;;34.50;92.40;;;;;;4235138;27;20055;-66
2021/09/04 08:39:50;;;;;;;1.70;1.17;;;34.50;92.70;;;;;;4230623;27;20517;-67
2021/09/04 08:41:55;;;;;;;5.03;1.20;;;34.40;92.80;;;;;;4229932;27;20475;-67
2021/09/04 08:43:59;;;;;;;3.17;0.90;;;34.30;92.50;;;;;;4228733;27;20039;-67
2021/09/04 08:46:03;;;;;;;2.47;1.08;;;34.30;92.50;;;;;;4236914;27;20489;-67
2021/09/04 08:48:11;;;;;;;1.50;0.90;;;34.20;92.60;;;;;;4236993;27;20100;-67
2021/09/04 08:50:16;;;;;;;1.30;0.82;;;34.00;92.90;;;;;;4236911;27;20135;-67
2021/09/04 08:52:20;;;;;;;4.25;1.30;;;34.00;93.00;;;;;;4233715;27;20055;-67
2021/09/04 08:54:25;;;;;;;2.38;1.08;;;34.00;92.80;;;;;;4219572;28;20091;-67
2021/09/04 08:56:29;;;;;;;2.05;1.00;;;33.90;93.00;;;;;;4234249;27;20505;-67
2021/09/04 08:58:34;;;;;;;1.60;1.10;;;33.90;93.20;;;;;;4235920;28;20055;-67
2021/09/04 09:00:39;;;;;;;2.25;1.20;;;33.90;93.30;;;;;;4216821;28;20119;-67
2021/09/04 09:02:47;;;;;;;4.30;2.30;;;33.80;93.50;;;;;;4233523;27;20401;-67
2021/09/04 09:05:06;;;;;;;6.95;4.10;;;33.80;93.80;;;;;;4225701;28;20085;-67
2021/09/04 09:07:10;;;;;;;9.00;5.78;;;33.70;93.80;;;;;;4217196;28;20543;-67
2021/09/04 09:09:33;;;;;;;7.22;5.05;;;33.60;93.00;;;;;;4217530;28;20048;-67
2021/09/04 09:11:38;;;;;;;4.53;3.47;;;33.60;93.70;;;;;;4217259;28;20428;-67
2021/09/04 09:13:53;;;;;;;8.82;2.70;;;33.60;93.80;;;;;;4218799;28;20050;-67
2021/09/04 09:15:57;;;;;;;3.28;1.55;;;33.30;91.80;;;;;;4215582;28;20135;-67
2021/09/04 09:18:07;;;;;;;4.22;1.70;;;32.70;93.50;;;;;;4217769;28;20059;-67
2021/09/04 09:20:14;;;;;;;6.20;1.65;;;32.50;94.60;;;;;;4216492;28;20089;-67
2021/09/04 09:22:20;;;;;;;9.30;1.73;;;32.10;95.50;;;;;;4219239;28;20501;-67
2021/09/04 09:24:25;;;;;;;3.03;1.27;;;31.30;97.80;;;;;;4217524;28;20502;-67
2021/09/04 09:26:29;;;;;;;2.58;1.42;;;30.80;99.00;;;;;;4218263;28;20481;-67
2021/09/04 09:28:34;;;;;;;2.08;1.13;;;30.40;99.90;;;;;;4216352;28;20141;-67
2021/09/04 09:30:43;;;;;;;2.75;1.00;;;30.30;99.90;;;;;;4214757;28;20055;-67
2021/09/04 09:32:54;;;;;;;2.28;0.98;;;30.40;99.90;;;;;;4214885;28;20059;-67
2021/09/04 09:34:58;;;;;;;4.05;1.20;;;30.30;99.90;;;;;;4216416;28;20062;-67
2021/09/04 09:37:03;;;;;;;2.47;0.90;;;30.20;99.90;;;;;;4216106;28;20048;-68
2021/09/04 09:39:11;;;;;;;3.15;0.60;;;30.00;99.90;;;;;;4211342;28;20113;-68
2021/09/04 09:41:15;;;;;;;4.88;0.90;;;29.70;99.90;;;;;;4213123;28;20123;-66
2021/09/04 09:43:35;;;;;;;2.88;0.70;;;30.00;99.90;;;;;;4215096;28;20036;-66
2021/09/04 09:45:45;;;;;;;2.03;0.80;;;29.60;99.90;;;;;;4220104;28;20106;-66
2021/09/04 09:47:51;;;;;;;2.05;0.60;;;29.60;99.90;;;;;;4218683;28;20093;-66
2021/09/04 09:49:55;;;;;;;3.25;0.68;;;29.80;99.90;;;;;;4196692;28;20048;-66
2021/09/04 09:52:02;;;;;;;1.75;0.88;;;29.80;99.90;;;;;;4207968;28;20063;-66
2021/09/04 09:54:09;;;;;;;2.90;1.15;;;29.90;99.90;;;;;;4201118;28;20121;-66
2021/09/04 09:56:16;;;;;;;3.03;1.00;;;29.70;99.90;;;;;;4213917;28;20039;-66
2021/09/04 09:58:53;;;;;;;1.23;0.70;;;30.10;99.90;;;;;;4173393;28;20410;-66
2021/09/04 10:01:20;;;;;;;2.08;0.80;;;29.80;99.90;;;;;;4212148;28;20430;-66
2021/09/04 10:03:56;;;;;;;4.00;0.95;;;29.60;99.90;;;;;;4123619;28;20505;-66
2021/09/04 10:06:04;;;;;;;1.70;0.80;;;29.40;99.90;;;;;;4125210;28;20422;-66
2021/09/04 10:08:08;;;;;;;4.18;2.35;;;29.50;99.90;;;;;;4123896;28;20078;-66
2021/09/04 10:10:12;;;;;;;5.25;1.35;;;29.60;99.90;;;;;;4123812;28;20479;-66
2021/09/04 10:12:33;;;;;;;4.82;1.40;;;29.60;99.90;;;;;;4062009;29;20396;-66
2021/09/04 10:15:05;;;;;;;10.70;1.92;;;29.50;99.90;;;;;;4075459;29;20516;-66
2021/09/04 10:17:13;;;;;;;10.88;1.63;;;29.80;99.90;;;;;;4060783;29;20519;-67
2021/09/04 10:19:18;;;;;;;5.25;1.58;;;29.60;99.90;;;;;;4077395;29;20103;-67
2021/09/04 10:21:26;;;;;;;3.75;1.50;;;29.60;99.90;;;;;;4074495;29;20043;-68
2021/09/04 10:23:54;;;;;;;6.50;1.85;;;29.60;99.90;;;;;;4076714;29;20102;-66
2021/09/04 10:26:36;;;;;;;4.50;2.10;;;29.80;99.90;;;;;;4068284;29;20094;-67
2021/09/04 10:29:05;;;;;;;5.68;1.73;;;30.00;99.90;;;;;;4067627;29;20652;-66
2021/09/04 10:31:10;;;;;;;6.32;1.80;;;30.10;99.90;;;;;;4072745;29;20326;-67
2021/09/04 10:33:26;;;;;;;7.90;1.60;;;30.20;99.90;;;;;;4073501;29;20562;-67
2021/09/04 10:35:55;;;;;;;3.67;1.88;;;30.00;99.90;;;;;;4083613;29;20051;-66
2021/09/04 10:37:59;;;;;;;6.43;1.40;;;29.90;99.90;;;;;;4072582;28;20412;-66
2021/09/04 10:40:10;;;;;;;3.72;1.08;;;29.80;99.90;;;;;;4092817;28;20650;-67
2021/09/04 10:42:16;;;;;;;8.18;2.10;;;29.80;99.90;;;;;;4112905;28;20640;-67
2021/09/04 10:44:24;;;;;;;4.68;1.75;;;30.00;99.90;;;;;;4111679;28;20046;-67
2021/09/04 10:46:30;;;;;;;3.72;1.60;;;30.10;99.90;;;;;;4082412;28;20603;-67
2021/09/04 10:48:38;;;;;;;4.15;1.90;;;30.30;99.90;;;;;;4091165;28;20443;-67
2021/09/04 10:51:08;;;;;;;9.88;2.30;;;30.30;99.90;;;;;;4131642;28;20548;-67
2021/09/04 10:53:17;;;;;;;4.55;2.17;;;30.40;99.90;;;;;;4128022;28;20442;-68
2021/09/04 10:55:32;;;;;;;8.38;5.40;;;30.40;99.90;;;;;;4126075;28;20077;-67